sensor_id;sensor_type;location;lat;lon;timestamp;temperature;humidity
790;DHT22;378;48.844;9.156;2023-09-08T00:02:22;18.70;99.90
790;DHT22;378;48.844;9.156;2023-09-08T00:04:51;18.70;99.90
790;DHT22;378;48.844;9.156;2023-09-08T00:07:18;18.70;99.90
790;DHT22;378;48.844;9.156;2023-09-08T00:09:45;18.60;99.90
790;DHT22;378;48.844;9.156;2023-09-08T00:12:12;18.70;99.90
790;DHT22;378;48.844;9.156;2023-09-08T00:14:39;18.70;99.90
790;DHT22;378;48.844;9.156;2023-09-08T00:17:05;18.60;99.90
790;DHT22;378;48.844;9.156;2023-09-08T00:19:32;18.60;99.90
790;DHT22;378;48.844;9.156;2023-09-08T00:22:00;18.60;99.90
790;DHT22;378;48.844;9.156;2023-09-08T00:24:28;18.60;99.90
790;DHT22;378;48.844;9.156;2023-09-08T00:26:55;18.50;99.90
790;DHT22;378;48.844;9.156;2023-09-08T00:29:22;18.60;99.90
790;DHT22;378;48.844;9.156;2023-09-08T00:31:49;18.50;99.90
790;DHT22;378;48.844;9.156;2023-09-08T00:34:15;18.60;99.90
790;DHT22;378;48.844;9.156;2023-09-08T00:36:42;18.60;99.90
790;DHT22;378;48.844;9.156;2023-09-08T00:39:10;18.50;99.90
790;DHT22;378;48.844;9.156;2023-09-08T00:41:37;18.50;99.90
790;DHT22;378;48.844;9.156;2023-09-08T00:44:04;18.50;99.90
790;DHT22;378;48.844;9.156;2023-09-08T00:46:34;18.50;99.90
790;DHT22;378;48.844;9.156;2023-09-08T00:49:09;18.50;99.90
790;DHT22;378;48.844;9.156;2023-09-08T00:51:36;18.50;99.90
790;DHT22;378;48.844;9.156;2023-09-08T00:54:05;18.40;99.90
790;DHT22;378;48.844;9.156;2023-09-08T00:56:34;18.40;99.90
790;DHT22;378;48.844;9.156;2023-09-08T00:59:01;18.40;99.90
790;DHT22;378;48.844;9.156;2023-09-08T01:01:29;18.30;99.90
790;DHT22;378;48.844;9.156;2023-09-08T01:03:55;18.30;99.90
790;DHT22;378;48.844;9.156;2023-09-08T01:06:23;18.30;99.90
790;DHT22;378;48.844;9.156;2023-09-08T01:08:50;18.30;99.90
790;DHT22;378;48.844;9.156;2023-09-08T01:11:18;18.30;99.90
790;DHT22;378;48.844;9.156;2023-09-08T01:13:47;18.40;99.90
790;DHT22;378;48.844;9.156;2023-09-08T01:16:14;18.30;99.90
790;DHT22;378;48.844;9.156;2023-09-08T01:18:40;18.20;99.90
790;DHT22;378;48.844;9.156;2023-09-08T01:21:34;18.10;99.90
790;DHT22;378;48.844;9.156;2023-09-08T01:24:21;18.10;99.90
790;DHT22;378;48.844;9.156;2023-09-08T01:26:56;18.10;99.90
790;DHT22;378;48.844;9.156;2023-09-08T01:29:23;18.00;99.90
790;DHT22;378;48.844;9.156;2023-09-08T01:31:51;18.00;99.90
790;DHT22;378;48.844;9.156;2023-09-08T01:34:18;18.00;99.90
790;DHT22;378;48.844;9.156;2023-09-08T01:36:45;18.00;99.90
790;DHT22;378;48.844;9.156;2023-09-08T01:39:12;17.90;99.90
790;DHT22;378;48.844;9.156;2023-09-08T01:41:39;17.90;99.90
790;DHT22;378;48.844;9.156;2023-09-08T01:44:07;17.90;99.90
790;DHT22;378;48.844;9.156;2023-09-08T01:46:36;17.90;99.90
790;DHT22;378;48.844;9.156;2023-09-08T01:49:04;17.90;99.90
790;DHT22;378;48.844;9.156;2023-09-08T01:51:30;18.00;99.90
790;DHT22;378;48.844;9.156;2023-09-08T01:53:57;18.00;99.90
790;DHT22;378;48.844;9.156;2023-09-08T01:56:24;18.00;99.90
790;DHT22;378;48.844;9.156;2023-09-08T01:58:51;18.00;99.90
790;DHT22;378;48.844;9.156;2023-09-08T02:01:19;17.90;99.90
790;DHT22;378;48.844;9.156;2023-09-08T02:03:46;17.80;99.90
790;DHT22;378;48.844;9.156;2023-09-08T02:06:13;17.80;99.90
790;DHT22;378;48.844;9.156;2023-09-08T02:08:40;17.70;99.90
790;DHT22;378;48.844;9.156;2023-09-08T02:11:07;17.80;99.90
790;DHT22;378;48.844;9.156;2023-09-08T02:13:34;17.70;99.90
790;DHT22;378;48.844;9.156;2023-09-08T02:16:01;17.50;99.90
790;DHT22;378;48.844;9.156;2023-09-08T02:18:29;17.40;99.90
790;DHT22;378;48.844;9.156;2023-09-08T02:20:55;17.30;99.90
790;DHT22;378;48.844;9.156;2023-09-08T02:23:22;17.20;99.90
790;DHT22;378;48.844;9.156;2023-09-08T02:25:49;17.20;99.90
790;DHT22;378;48.844;9.156;2023-09-08T02:28:16;17.10;99.90
790;DHT22;378;48.844;9.156;2023-09-08T02:30:43;17.20;99.90
790;DHT22;378;48.844;9.156;2023-09-08T02:33:09;17.20;99.90
790;DHT22;378;48.844;9.156;2023-09-08T02:35:39;17.30;99.90
790;DHT22;378;48.844;9.156;2023-09-08T02:38:06;17.30;99.90
790;DHT22;378;48.844;9.156;2023-09-08T02:40:33;17.40;99.90
790;DHT22;378;48.844;9.156;2023-09-08T02:43:00;17.30;99.90
790;DHT22;378;48.844;9.156;2023-09-08T02:45:27;17.30;99.90
790;DHT22;378;48.844;9.156;2023-09-08T02:47:54;17.30;99.90
790;DHT22;378;48.844;9.156;2023-09-08T02:50:21;17.30;99.90
790;DHT22;378;48.844;9.156;2023-09-08T02:52:49;17.40;99.90
790;DHT22;378;48.844;9.156;2023-09-08T02:55:16;17.40;99.90
790;DHT22;378;48.844;9.156;2023-09-08T02:57:43;17.30;99.90
790;DHT22;378;48.844;9.156;2023-09-08T03:00:10;17.40;99.90
790;DHT22;378;48.844;9.156;2023-09-08T03:02:37;17.50;99.90
790;DHT22;378;48.844;9.156;2023-09-08T03:05:04;17.50;99.90
790;DHT22;378;48.844;9.156;2023-09-08T03:07:32;17.40;99.90
790;DHT22;378;48.844;9.156;2023-09-08T03:10:00;17.40;99.90
790;DHT22;378;48.844;9.156;2023-09-08T03:12:27;17.40;99.90
790;DHT22;378;48.844;9.156;2023-09-08T03:14:54;17.30;99.90
790;DHT22;378;48.844;9.156;2023-09-08T03:17:21;17.30;99.90
790;DHT22;378;48.844;9.156;2023-09-08T03:19:48;17.30;99.90
790;DHT22;378;48.844;9.156;2023-09-08T03:22:15;17.30;99.90
790;DHT22;378;48.844;9.156;2023-09-08T03:24:42;17.30;99.90
790;DHT22;378;48.844;9.156;2023-09-08T03:27:10;17.20;99.90
790;DHT22;378;48.844;9.156;2023-09-08T03:29:37;17.20;99.90
790;DHT22;378;48.844;9.156;2023-09-08T03:32:04;17.20;99.90
790;DHT22;378;48.844;9.156;2023-09-08T03:34:31;17.20;99.90
790;DHT22;378;48.844;9.156;2023-09-08T03:36:58;17.10;99.90
790;DHT22;378;48.844;9.156;2023-09-08T03:39:25;17.10;99.90
790;DHT22;378;48.844;9.156;2023-09-08T03:41:52;17.00;99.90
790;DHT22;378;48.844;9.156;2023-09-08T03:44:20;17.00;99.90
790;DHT22;378;48.844;9.156;2023-09-08T03:46:46;17.00;99.90
790;DHT22;378;48.844;9.156;2023-09-08T03:49:13;17.00;99.90
790;DHT22;378;48.844;9.156;2023-09-08T03:51:40;17.10;99.90
790;DHT22;378;48.844;9.156;2023-09-08T03:54:07;17.10;99.90
790;DHT22;378;48.844;9.156;2023-09-08T03:56:34;17.00;99.90
790;DHT22;378;48.844;9.156;2023-09-08T03:59:01;17.00;99.90
790;DHT22;378;48.844;9.156;2023-09-08T04:01:29;16.90;99.90
790;DHT22;378;48.844;9.156;2023-09-08T04:03:56;16.90;99.90
790;DHT22;378;48.844;9.156;2023-09-08T04:06:23;16.90;99.90
790;DHT22;378;48.844;9.156;2023-09-08T04:08:49;16.90;99.90
790;DHT22;378;48.844;9.156;2023-09-08T04:11:16;16.80;99.90
790;DHT22;378;48.844;9.156;2023-09-08T04:13:43;16.80;99.90
790;DHT22;378;48.844;9.156;2023-09-08T04:16:10;16.80;99.90
790;DHT22;378;48.844;9.156;2023-09-08T04:18:38;16.80;99.90
790;DHT22;378;48.844;9.156;2023-09-08T04:21:06;16.80;99.90
790;DHT22;378;48.844;9.156;2023-09-08T04:23:33;16.70;99.90
790;DHT22;378;48.844;9.156;2023-09-08T04:26:00;16.70;99.90
790;DHT22;378;48.844;9.156;2023-09-08T04:28:26;16.70;99.90
790;DHT22;378;48.844;9.156;2023-09-08T04:30:53;16.70;99.90
790;DHT22;378;48.844;9.156;2023-09-08T04:33:22;16.70;99.90
790;DHT22;378;48.844;9.156;2023-09-08T04:35:50;16.70;99.90
790;DHT22;378;48.844;9.156;2023-09-08T04:38:17;16.70;99.90
790;DHT22;378;48.844;9.156;2023-09-08T04:40:45;16.60;99.90
790;DHT22;378;48.844;9.156;2023-09-08T04:43:13;16.70;99.90
790;DHT22;378;48.844;9.156;2023-09-08T04:45:40;16.60;99.90
790;DHT22;378;48.844;9.156;2023-09-08T04:48:06;16.60;99.90
790;DHT22;378;48.844;9.156;2023-09-08T04:50:34;16.50;99.90
790;DHT22;378;48.844;9.156;2023-09-08T04:53:02;16.60;99.90
790;DHT22;378;48.844;9.156;2023-09-08T04:55:29;16.60;99.90
790;DHT22;378;48.844;9.156;2023-09-08T04:57:56;16.60;99.90
790;DHT22;378;48.844;9.156;2023-09-08T05:00:22;16.60;99.90
790;DHT22;378;48.844;9.156;2023-09-08T05:02:49;16.60;99.90
790;DHT22;378;48.844;9.156;2023-09-08T05:05:16;16.60;99.90
790;DHT22;378;48.844;9.156;2023-09-08T05:07:43;16.60;99.90
790;DHT22;378;48.844;9.156;2023-09-08T05:10:12;16.60;99.90
790;DHT22;378;48.844;9.156;2023-09-08T05:12:39;16.60;99.90
790;DHT22;378;48.844;9.156;2023-09-08T05:15:06;16.70;99.90
790;DHT22;378;48.844;9.156;2023-09-08T05:17:40;16.70;99.90
790;DHT22;378;48.844;9.156;2023-09-08T05:20:07;16.70;99.90
790;DHT22;378;48.844;9.156;2023-09-08T05:22:34;16.70;99.90
790;DHT22;378;48.844;9.156;2023-09-08T05:25:02;16.70;99.90
790;DHT22;378;48.844;9.156;2023-09-08T05:27:30;16.70;99.90
790;DHT22;378;48.844;9.156;2023-09-08T05:29:57;16.80;99.90
790;DHT22;378;48.844;9.156;2023-09-08T05:32:24;16.80;99.90
790;DHT22;378;48.844;9.156;2023-09-08T05:34:51;16.80;99.90
790;DHT22;378;48.844;9.156;2023-09-08T05:37:18;16.80;99.90
790;DHT22;378;48.844;9.156;2023-09-08T05:39:44;16.80;99.90
790;DHT22;378;48.844;9.156;2023-09-08T05:42:11;16.90;99.90
790;DHT22;378;48.844;9.156;2023-09-08T05:44:39;16.80;99.90
790;DHT22;378;48.844;9.156;2023-09-08T05:47:06;16.90;99.90
790;DHT22;378;48.844;9.156;2023-09-08T05:49:33;16.90;99.90
790;DHT22;378;48.844;9.156;2023-09-08T05:52:00;17.00;99.90
790;DHT22;378;48.844;9.156;2023-09-08T05:54:27;17.00;99.90
790;DHT22;378;48.844;9.156;2023-09-08T05:56:55;17.10;99.90
790;DHT22;378;48.844;9.156;2023-09-08T05:59:22;17.20;99.90
790;DHT22;378;48.844;9.156;2023-09-08T06:01:50;17.20;99.90
790;DHT22;378;48.844;9.156;2023-09-08T06:04:17;17.30;99.90
790;DHT22;378;48.844;9.156;2023-09-08T06:06:44;17.30;99.90
790;DHT22;378;48.844;9.156;2023-09-08T06:09:11;17.40;99.90
790;DHT22;378;48.844;9.156;2023-09-08T06:11:40;17.40;99.90
790;DHT22;378;48.844;9.156;2023-09-08T06:14:06;17.50;99.90
790;DHT22;378;48.844;9.156;2023-09-08T06:16:33;17.50;99.90
790;DHT22;378;48.844;9.156;2023-09-08T06:19:02;17.50;99.90
790;DHT22;378;48.844;9.156;2023-09-08T06:21:29;17.60;99.90
790;DHT22;378;48.844;9.156;2023-09-08T06:23:56;17.60;99.90
790;DHT22;378;48.844;9.156;2023-09-08T06:26:23;17.70;99.90
790;DHT22;378;48.844;9.156;2023-09-08T06:28:53;17.70;99.90
790;DHT22;378;48.844;9.156;2023-09-08T06:31:20;17.80;99.90
790;DHT22;378;48.844;9.156;2023-09-08T06:33:47;17.90;99.90
790;DHT22;378;48.844;9.156;2023-09-08T06:36:18;17.90;99.90
790;DHT22;378;48.844;9.156;2023-09-08T06:38:45;18.00;99.90
790;DHT22;378;48.844;9.156;2023-09-08T06:41:12;18.00;99.90
790;DHT22;378;48.844;9.156;2023-09-08T06:43:39;18.10;99.90
790;DHT22;378;48.844;9.156;2023-09-08T06:46:06;18.20;99.90
790;DHT22;378;48.844;9.156;2023-09-08T06:48:32;18.20;99.90
790;DHT22;378;48.844;9.156;2023-09-08T06:50:59;18.40;99.90
790;DHT22;378;48.844;9.156;2023-09-08T06:53:27;18.40;99.90
790;DHT22;378;48.844;9.156;2023-09-08T06:55:56;18.50;99.90
790;DHT22;378;48.844;9.156;2023-09-08T06:58:23;18.50;99.90
790;DHT22;378;48.844;9.156;2023-09-08T07:00:50;18.60;99.90
790;DHT22;378;48.844;9.156;2023-09-08T07:03:19;18.60;99.90
790;DHT22;378;48.844;9.156;2023-09-08T07:05:47;18.70;99.90
790;DHT22;378;48.844;9.156;2023-09-08T07:08:13;18.70;99.90
790;DHT22;378;48.844;9.156;2023-09-08T07:10:42;18.80;99.90
790;DHT22;378;48.844;9.156;2023-09-08T07:13:09;18.80;99.90
790;DHT22;378;48.844;9.156;2023-09-08T07:15:36;18.90;99.90
790;DHT22;378;48.844;9.156;2023-09-08T07:18:03;19.00;99.90
790;DHT22;378;48.844;9.156;2023-09-08T07:20:30;19.00;99.90
790;DHT22;378;48.844;9.156;2023-09-08T07:22:57;19.00;99.90
790;DHT22;378;48.844;9.156;2023-09-08T07:25:24;19.00;99.90
790;DHT22;378;48.844;9.156;2023-09-08T07:27:52;19.10;99.90
790;DHT22;378;48.844;9.156;2023-09-08T07:30:19;19.20;99.90
790;DHT22;378;48.844;9.156;2023-09-08T07:32:46;19.30;99.90
790;DHT22;378;48.844;9.156;2023-09-08T07:35:13;19.30;99.90
790;DHT22;378;48.844;9.156;2023-09-08T07:37:42;19.30;99.90
790;DHT22;378;48.844;9.156;2023-09-08T07:40:10;19.40;99.90
790;DHT22;378;48.844;9.156;2023-09-08T07:42:39;19.40;99.90
790;DHT22;378;48.844;9.156;2023-09-08T07:45:08;19.40;99.90
790;DHT22;378;48.844;9.156;2023-09-08T07:47:36;19.40;99.90
790;DHT22;378;48.844;9.156;2023-09-08T07:50:17;19.50;99.90
790;DHT22;378;48.844;9.156;2023-09-08T07:52:45;19.50;99.90
790;DHT22;378;48.844;9.156;2023-09-08T07:55:12;19.50;99.90
790;DHT22;378;48.844;9.156;2023-09-08T07:57:39;19.50;99.90
790;DHT22;378;48.844;9.156;2023-09-08T08:00:08;19.60;99.90
790;DHT22;378;48.844;9.156;2023-09-08T08:02:37;19.60;99.90
790;DHT22;378;48.844;9.156;2023-09-08T08:05:05;19.60;99.90
790;DHT22;378;48.844;9.156;2023-09-08T08:07:32;19.70;99.90
790;DHT22;378;48.844;9.156;2023-09-08T08:09:59;19.80;99.90
790;DHT22;378;48.844;9.156;2023-09-08T08:12:26;19.80;99.90
790;DHT22;378;48.844;9.156;2023-09-08T08:14:53;19.90;99.90
790;DHT22;378;48.844;9.156;2023-09-08T08:17:22;20.00;99.90
790;DHT22;378;48.844;9.156;2023-09-08T08:19:49;20.00;99.90
790;DHT22;378;48.844;9.156;2023-09-08T08:22:15;20.10;99.90
790;DHT22;378;48.844;9.156;2023-09-08T08:24:42;20.20;99.90
790;DHT22;378;48.844;9.156;2023-09-08T08:27:09;20.20;99.90
790;DHT22;378;48.844;9.156;2023-09-08T08:29:36;20.20;99.90
790;DHT22;378;48.844;9.156;2023-09-08T08:32:04;20.30;99.90
790;DHT22;378;48.844;9.156;2023-09-08T08:34:32;20.30;99.90
790;DHT22;378;48.844;9.156;2023-09-08T08:36:59;20.40;99.90
790;DHT22;378;48.844;9.156;2023-09-08T08:39:26;20.60;99.90
790;DHT22;378;48.844;9.156;2023-09-08T08:41:52;20.70;99.90
790;DHT22;378;48.844;9.156;2023-09-08T08:44:19;20.80;99.90
790;DHT22;378;48.844;9.156;2023-09-08T08:46:47;20.90;99.90
790;DHT22;378;48.844;9.156;2023-09-08T08:49:15;21.00;99.90
790;DHT22;378;48.844;9.156;2023-09-08T08:51:44;21.10;99.90
790;DHT22;378;48.844;9.156;2023-09-08T08:54:13;21.20;99.90
790;DHT22;378;48.844;9.156;2023-09-08T08:56:41;21.20;99.90
790;DHT22;378;48.844;9.156;2023-09-08T08:59:09;21.30;99.90
790;DHT22;378;48.844;9.156;2023-09-08T09:01:37;21.40;99.90
790;DHT22;378;48.844;9.156;2023-09-08T09:04:05;21.40;99.90
790;DHT22;378;48.844;9.156;2023-09-08T09:06:32;21.50;99.90
790;DHT22;378;48.844;9.156;2023-09-08T09:09:01;21.50;99.90
790;DHT22;378;48.844;9.156;2023-09-08T09:11:30;21.60;99.90
790;DHT22;378;48.844;9.156;2023-09-08T09:13:57;21.70;99.90
790;DHT22;378;48.844;9.156;2023-09-08T09:16:24;21.70;99.90
790;DHT22;378;48.844;9.156;2023-09-08T09:18:55;21.80;99.90
790;DHT22;378;48.844;9.156;2023-09-08T09:21:22;21.80;99.90
790;DHT22;378;48.844;9.156;2023-09-08T09:23:49;21.90;99.90
790;DHT22;378;48.844;9.156;2023-09-08T09:26:25;22.00;99.90
790;DHT22;378;48.844;9.156;2023-09-08T09:28:52;22.00;99.90
790;DHT22;378;48.844;9.156;2023-09-08T09:31:23;22.00;99.90
790;DHT22;378;48.844;9.156;2023-09-08T09:34:02;22.10;99.90
790;DHT22;378;48.844;9.156;2023-09-08T09:36:31;22.20;99.90
790;DHT22;378;48.844;9.156;2023-09-08T09:38:59;22.20;99.90
790;DHT22;378;48.844;9.156;2023-09-08T09:41:29;22.30;99.90
790;DHT22;378;48.844;9.156;2023-09-08T09:43:56;22.30;99.90
790;DHT22;378;48.844;9.156;2023-09-08T09:46:23;22.40;99.90
790;DHT22;378;48.844;9.156;2023-09-08T09:48:51;22.40;99.90
790;DHT22;378;48.844;9.156;2023-09-08T09:51:19;22.50;99.90
790;DHT22;378;48.844;9.156;2023-09-08T09:53:46;22.50;99.90
790;DHT22;378;48.844;9.156;2023-09-08T09:56:15;22.60;99.90
790;DHT22;378;48.844;9.156;2023-09-08T09:58:44;22.60;99.90
790;DHT22;378;48.844;9.156;2023-09-08T10:01:11;22.70;99.90
790;DHT22;378;48.844;9.156;2023-09-08T10:03:39;22.80;99.90
790;DHT22;378;48.844;9.156;2023-09-08T10:06:06;22.90;99.90
790;DHT22;378;48.844;9.156;2023-09-08T10:08:34;23.00;99.90
790;DHT22;378;48.844;9.156;2023-09-08T10:11:06;23.00;99.90
790;DHT22;378;48.844;9.156;2023-09-08T10:13:39;23.00;99.90
790;DHT22;378;48.844;9.156;2023-09-08T10:16:08;23.10;99.90
790;DHT22;378;48.844;9.156;2023-09-08T10:18:35;23.10;99.90
790;DHT22;378;48.844;9.156;2023-09-08T10:21:04;23.10;99.90
790;DHT22;378;48.844;9.156;2023-09-08T10:23:35;23.20;99.90
790;DHT22;378;48.844;9.156;2023-09-08T10:26:06;23.40;99.90
790;DHT22;378;48.844;9.156;2023-09-08T10:28:36;23.40;99.90
790;DHT22;378;48.844;9.156;2023-09-08T10:31:03;23.50;99.90
790;DHT22;378;48.844;9.156;2023-09-08T10:33:33;23.50;99.90
790;DHT22;378;48.844;9.156;2023-09-08T10:36:02;23.60;99.90
790;DHT22;378;48.844;9.156;2023-09-08T10:38:32;23.70;99.90
790;DHT22;378;48.844;9.156;2023-09-08T10:41:25;23.70;99.90
790;DHT22;378;48.844;9.156;2023-09-08T10:43:56;23.80;99.90
790;DHT22;378;48.844;9.156;2023-09-08T10:46:24;23.90;99.90
790;DHT22;378;48.844;9.156;2023-09-08T10:48:55;24.00;99.90
790;DHT22;378;48.844;9.156;2023-09-08T10:51:27;24.00;99.90
790;DHT22;378;48.844;9.156;2023-09-08T10:53:54;24.10;99.90
790;DHT22;378;48.844;9.156;2023-09-08T10:56:21;24.20;99.90
790;DHT22;378;48.844;9.156;2023-09-08T10:58:52;24.20;99.90
790;DHT22;378;48.844;9.156;2023-09-08T11:01:20;24.30;99.90
790;DHT22;378;48.844;9.156;2023-09-08T11:03:53;24.40;99.90
790;DHT22;378;48.844;9.156;2023-09-08T11:06:21;24.40;99.90
790;DHT22;378;48.844;9.156;2023-09-08T11:08:49;24.60;99.90
790;DHT22;378;48.844;9.156;2023-09-08T11:11:21;24.60;99.90
790;DHT22;378;48.844;9.156;2023-09-08T11:13:48;24.70;99.90
790;DHT22;378;48.844;9.156;2023-09-08T11:16:15;24.80;99.90
790;DHT22;378;48.844;9.156;2023-09-08T11:18:46;24.80;99.90
790;DHT22;378;48.844;9.156;2023-09-08T11:21:15;24.80;99.90
790;DHT22;378;48.844;9.156;2023-09-08T11:23:42;24.90;99.90
790;DHT22;378;48.844;9.156;2023-09-08T11:26:12;25.00;99.90
790;DHT22;378;48.844;9.156;2023-09-08T11:28:40;25.10;99.90
790;DHT22;378;48.844;9.156;2023-09-08T11:31:07;25.10;99.90
790;DHT22;378;48.844;9.156;2023-09-08T11:33:35;25.20;99.90
790;DHT22;378;48.844;9.156;2023-09-08T11:36:12;25.20;99.90
790;DHT22;378;48.844;9.156;2023-09-08T11:38:42;25.20;99.90
790;DHT22;378;48.844;9.156;2023-09-08T11:41:09;25.30;99.90
790;DHT22;378;48.844;9.156;2023-09-08T11:43:36;25.30;99.90
790;DHT22;378;48.844;9.156;2023-09-08T11:46:03;25.40;99.90
790;DHT22;378;48.844;9.156;2023-09-08T11:48:31;25.40;99.90
790;DHT22;378;48.844;9.156;2023-09-08T11:50:58;25.40;99.90
790;DHT22;378;48.844;9.156;2023-09-08T11:53:26;25.40;99.90
790;DHT22;378;48.844;9.156;2023-09-08T11:55:57;25.50;99.90
790;DHT22;378;48.844;9.156;2023-09-08T11:58:25;25.50;99.90
790;DHT22;378;48.844;9.156;2023-09-08T12:00:54;25.50;99.90
790;DHT22;378;48.844;9.156;2023-09-08T12:03:24;25.50;99.90
790;DHT22;378;48.844;9.156;2023-09-08T12:05:52;25.60;99.90
790;DHT22;378;48.844;9.156;2023-09-08T12:08:25;25.60;99.90
790;DHT22;378;48.844;9.156;2023-09-08T12:10:54;25.70;99.90
790;DHT22;378;48.844;9.156;2023-09-08T12:13:29;25.70;99.90
790;DHT22;378;48.844;9.156;2023-09-08T12:15:56;25.80;99.90
790;DHT22;378;48.844;9.156;2023-09-08T12:18:37;25.90;99.90
790;DHT22;378;48.844;9.156;2023-09-08T12:21:04;26.00;99.90
790;DHT22;378;48.844;9.156;2023-09-08T12:23:31;26.00;99.90
790;DHT22;378;48.844;9.156;2023-09-08T12:25:59;26.00;99.90
790;DHT22;378;48.844;9.156;2023-09-08T12:28:31;26.00;99.90
790;DHT22;378;48.844;9.156;2023-09-08T12:30:58;26.10;99.90
790;DHT22;378;48.844;9.156;2023-09-08T12:33:26;26.10;99.90
790;DHT22;378;48.844;9.156;2023-09-08T12:35:53;26.10;99.90
790;DHT22;378;48.844;9.156;2023-09-08T12:38:20;26.10;99.90
790;DHT22;378;48.844;9.156;2023-09-08T12:40:48;26.10;99.90
790;DHT22;378;48.844;9.156;2023-09-08T12:43:21;26.20;99.90
790;DHT22;378;48.844;9.156;2023-09-08T12:45:48;26.20;99.90
790;DHT22;378;48.844;9.156;2023-09-08T12:48:15;26.30;99.90
790;DHT22;378;48.844;9.156;2023-09-08T12:50:41;26.40;99.90
790;DHT22;378;48.844;9.156;2023-09-08T12:53:08;26.40;99.90
790;DHT22;378;48.844;9.156;2023-09-08T12:55:35;26.40;99.90
790;DHT22;378;48.844;9.156;2023-09-08T12:58:05;26.40;99.90
790;DHT22;378;48.844;9.156;2023-09-08T13:00:35;26.50;99.90
790;DHT22;378;48.844;9.156;2023-09-08T13:03:02;26.50;99.90
790;DHT22;378;48.844;9.156;2023-09-08T13:05:29;26.50;99.90
790;DHT22;378;48.844;9.156;2023-09-08T13:07:56;26.60;99.90
790;DHT22;378;48.844;9.156;2023-09-08T13:10:23;26.70;99.90
790;DHT22;378;48.844;9.156;2023-09-08T13:12:50;26.70;99.90
790;DHT22;378;48.844;9.156;2023-09-08T13:15:17;26.70;99.90
790;DHT22;378;48.844;9.156;2023-09-08T13:17:45;26.70;99.90
790;DHT22;378;48.844;9.156;2023-09-08T13:20:12;26.80;99.90
790;DHT22;378;48.844;9.156;2023-09-08T13:22:39;26.80;99.90
790;DHT22;378;48.844;9.156;2023-09-08T13:25:07;26.90;99.90
790;DHT22;378;48.844;9.156;2023-09-08T13:27:34;27.00;99.90
790;DHT22;378;48.844;9.156;2023-09-08T13:30:11;27.10;99.90
790;DHT22;378;48.844;9.156;2023-09-08T13:32:39;27.20;99.90
790;DHT22;378;48.844;9.156;2023-09-08T13:35:07;27.40;99.90
790;DHT22;378;48.844;9.156;2023-09-08T13:37:34;27.40;99.90
790;DHT22;378;48.844;9.156;2023-09-08T13:40:04;27.50;99.90
790;DHT22;378;48.844;9.156;2023-09-08T13:42:31;27.60;99.90
790;DHT22;378;48.844;9.156;2023-09-08T13:44:57;27.60;99.90
790;DHT22;378;48.844;9.156;2023-09-08T13:47:24;27.60;99.90
790;DHT22;378;48.844;9.156;2023-09-08T13:49:51;27.60;99.90
790;DHT22;378;48.844;9.156;2023-09-08T13:52:20;27.60;99.90
790;DHT22;378;48.844;9.156;2023-09-08T13:54:46;27.60;99.90
790;DHT22;378;48.844;9.156;2023-09-08T13:57:13;27.60;99.90
790;DHT22;378;48.844;9.156;2023-09-08T13:59:40;27.60;99.90
790;DHT22;378;48.844;9.156;2023-09-08T14:02:07;27.60;99.90
790;DHT22;378;48.844;9.156;2023-09-08T14:04:34;27.60;99.90
790;DHT22;378;48.844;9.156;2023-09-08T14:07:01;27.60;99.90
790;DHT22;378;48.844;9.156;2023-09-08T14:09:29;27.70;99.90
790;DHT22;378;48.844;9.156;2023-09-08T14:11:56;27.70;99.90
790;DHT22;378;48.844;9.156;2023-09-08T14:14:23;27.80;99.90
790;DHT22;378;48.844;9.156;2023-09-08T14:16:50;27.90;99.90
790;DHT22;378;48.844;9.156;2023-09-08T14:19:17;28.00;99.90
790;DHT22;378;48.844;9.156;2023-09-08T14:21:44;28.00;99.90
790;DHT22;378;48.844;9.156;2023-09-08T14:24:11;28.00;99.90
790;DHT22;378;48.844;9.156;2023-09-08T14:26:39;28.10;99.90
790;DHT22;378;48.844;9.156;2023-09-08T14:29:07;28.20;99.90
790;DHT22;378;48.844;9.156;2023-09-08T14:31:35;28.20;99.90
790;DHT22;378;48.844;9.156;2023-09-08T14:34:01;28.20;99.90
790;DHT22;378;48.844;9.156;2023-09-08T14:36:29;28.30;99.90
790;DHT22;378;48.844;9.156;2023-09-08T14:38:56;28.30;99.90
790;DHT22;378;48.844;9.156;2023-09-08T14:41:23;28.30;99.90
790;DHT22;378;48.844;9.156;2023-09-08T14:43:51;28.40;99.90
790;DHT22;378;48.844;9.156;2023-09-08T14:46:18;28.40;99.90
790;DHT22;378;48.844;9.156;2023-09-08T14:48:47;28.50;99.90
790;DHT22;378;48.844;9.156;2023-09-08T14:51:14;28.50;99.90
790;DHT22;378;48.844;9.156;2023-09-08T14:53:43;28.50;99.90
790;DHT22;378;48.844;9.156;2023-09-08T14:56:10;28.50;99.90
790;DHT22;378;48.844;9.156;2023-09-08T14:58:37;28.50;99.90
790;DHT22;378;48.844;9.156;2023-09-08T15:01:05;28.50;99.90
790;DHT22;378;48.844;9.156;2023-09-08T15:03:34;28.50;99.90
790;DHT22;378;48.844;9.156;2023-09-08T15:06:01;28.50;99.90
790;DHT22;378;48.844;9.156;2023-09-08T15:08:30;28.40;99.90
790;DHT22;378;48.844;9.156;2023-09-08T15:10:57;28.40;99.90
790;DHT22;378;48.844;9.156;2023-09-08T15:13:24;28.30;99.90
790;DHT22;378;48.844;9.156;2023-09-08T15:15:51;28.30;99.90
790;DHT22;378;48.844;9.156;2023-09-08T15:18:19;28.20;99.90
790;DHT22;378;48.844;9.156;2023-09-08T15:20:52;28.20;99.90
790;DHT22;378;48.844;9.156;2023-09-08T15:23:19;28.20;99.90
790;DHT22;378;48.844;9.156;2023-09-08T15:25:57;28.20;99.90
790;DHT22;378;48.844;9.156;2023-09-08T15:28:25;28.10;99.90
790;DHT22;378;48.844;9.156;2023-09-08T15:30:53;27.90;99.90
790;DHT22;378;48.844;9.156;2023-09-08T15:33:21;27.80;99.90
790;DHT22;378;48.844;9.156;2023-09-08T15:35:49;27.70;99.90
790;DHT22;378;48.844;9.156;2023-09-08T15:38:16;27.60;99.90
790;DHT22;378;48.844;9.156;2023-09-08T15:41:23;27.50;99.90
790;DHT22;378;48.844;9.156;2023-09-08T15:43:57;27.40;99.90
790;DHT22;378;48.844;9.156;2023-09-08T15:46:24;27.30;99.90
790;DHT22;378;48.844;9.156;2023-09-08T15:48:52;27.30;99.90
790;DHT22;378;48.844;9.156;2023-09-08T15:51:19;27.30;99.90
790;DHT22;378;48.844;9.156;2023-09-08T15:53:46;27.30;99.90
790;DHT22;378;48.844;9.156;2023-09-08T15:56:13;27.20;99.90
790;DHT22;378;48.844;9.156;2023-09-08T15:58:40;27.20;99.90
790;DHT22;378;48.844;9.156;2023-09-08T16:01:07;27.10;99.90
790;DHT22;378;48.844;9.156;2023-09-08T16:03:34;27.10;99.90
790;DHT22;378;48.844;9.156;2023-09-08T16:06:02;27.00;99.90
790;DHT22;378;48.844;9.156;2023-09-08T16:08:29;27.00;99.90
790;DHT22;378;48.844;9.156;2023-09-08T16:10:59;27.00;99.90
790;DHT22;378;48.844;9.156;2023-09-08T16:13:26;26.90;99.90
790;DHT22;378;48.844;9.156;2023-09-08T16:15:53;26.90;99.90
790;DHT22;378;48.844;9.156;2023-09-08T16:18:20;26.90;99.90
790;DHT22;378;48.844;9.156;2023-09-08T16:20:47;26.80;99.90
790;DHT22;378;48.844;9.156;2023-09-08T16:23:15;26.80;99.90
790;DHT22;378;48.844;9.156;2023-09-08T16:25:42;26.80;99.90
790;DHT22;378;48.844;9.156;2023-09-08T16:28:09;26.80;99.90
790;DHT22;378;48.844;9.156;2023-09-08T16:30:36;26.90;99.90
790;DHT22;378;48.844;9.156;2023-09-08T16:33:06;27.00;99.90
790;DHT22;378;48.844;9.156;2023-09-08T16:35:34;27.00;99.90
790;DHT22;378;48.844;9.156;2023-09-08T16:38:01;27.00;99.90
790;DHT22;378;48.844;9.156;2023-09-08T16:40:29;27.00;99.90